createdAt,value
2019-06-08T00:00:31.018Z,0.40
2019-06-08T00:04:35.405Z,0.20
2019-06-08T00:08:39.482Z,0.20
2019-06-08T00:12:43.640Z,0.37
2019-06-08T00:16:49.599Z,0.13
2019-06-08T00:20:53.694Z,0.40
2019-06-08T00:24:57.860Z,0.30
2019-06-08T00:29:01.988Z,0.30
2019-06-08T00:33:06.178Z,0.30
2019-06-08T00:37:10.871Z,0.20
2019-06-08T00:41:14.995Z,0.28
2019-06-08T00:45:19.986Z,0.23
2019-06-08T00:49:24.738Z,0.25
2019-06-08T00:53:29.644Z,0.40
2019-06-08T00:57:33.913Z,0.40
2019-06-08T01:01:37.981Z,0.20
2019-06-08T01:05:42.068Z,0.30
2019-06-08T01:09:46.081Z,0.30
2019-06-08T01:13:50.125Z,0.50
2019-06-08T01:18:03.086Z,0.37
2019-06-08T01:22:00.215Z,0.40
2019-06-08T01:26:04.554Z,0.30
2019-06-08T01:30:11.345Z,0.30
2019-06-08T01:34:15.421Z,0.30
2019-06-08T01:38:19.449Z,0.30
2019-06-08T01:42:23.474Z,0.50
2019-06-08T01:46:28.249Z,0.30
2019-06-08T01:50:32.783Z,0.30
2019-06-08T01:54:37.018Z,0.30
2019-06-08T01:58:41.147Z,0.40
2019-06-08T02:02:45.226Z,0.30
2019-06-08T02:06:49.478Z,0.47
2019-06-08T02:10:53.806Z,0.30
2019-06-08T02:14:57.838Z,0.67
2019-06-08T02:19:02.166Z,0.30
2019-06-08T02:23:07.266Z,0.50
2019-06-08T02:27:11.281Z,0.37
2019-06-08T02:31:15.382Z,0.30
2019-06-08T02:35:21.006Z,0.57
2019-06-08T02:39:25.039Z,0.50
2019-06-08T02:43:29.150Z,0.50
2019-06-08T02:47:34.480Z,0.40
2019-06-08T02:51:39.055Z,0.50
2019-06-08T02:55:43.529Z,0.40
2019-06-08T02:59:47.686Z,0.50
2019-06-08T03:03:52.260Z,0.50
2019-06-08T03:07:56.722Z,0.40
2019-06-08T03:12:02.492Z,0.70
2019-06-08T03:16:07.583Z,0.40
2019-06-08T03:20:11.619Z,0.60
2019-06-08T03:24:15.628Z,0.60
2019-06-08T03:28:19.728Z,0.50
2019-06-08T03:32:23.837Z,0.50
2019-06-08T03:36:27.890Z,0.37
2019-06-08T03:40:31.856Z,0.30
2019-06-08T03:44:36.177Z,0.53
2019-06-08T03:48:42.161Z,0.60
2019-06-08T03:52:46.241Z,0.60
2019-06-08T03:56:50.535Z,0.37
2019-06-08T04:00:54.639Z,0.50
2019-06-08T04:04:58.619Z,0.60
2019-06-08T04:09:03.083Z,0.50
2019-06-08T04:13:11.294Z,0.50
2019-06-08T04:17:14.607Z,0.40
2019-06-08T04:21:18.674Z,0.50
2019-06-08T04:25:23.788Z,0.50
2019-06-08T04:29:27.909Z,0.40
2019-06-08T04:33:31.954Z,0.63
2019-06-08T04:37:35.965Z,0.50
2019-06-08T04:41:42.816Z,0.50
2019-06-08T04:45:48.121Z,0.60
2019-06-08T04:49:52.773Z,0.60
2019-06-08T04:53:57.109Z,0.90
2019-06-08T04:58:01.173Z,0.50
2019-06-08T05:02:05.239Z,0.33
2019-06-08T05:06:09.285Z,0.50
2019-06-08T05:10:13.815Z,0.50
2019-06-08T05:14:17.867Z,0.50
2019-06-08T05:18:25.760Z,0.60
2019-06-08T05:22:27.792Z,0.73
2019-06-08T05:26:32.103Z,0.60
2019-06-08T05:30:36.339Z,0.90
2019-06-08T05:34:41.387Z,0.60
2019-06-08T05:38:45.711Z,0.63
2019-06-08T05:42:49.964Z,0.50
2019-06-08T05:46:54.091Z,0.50
2019-06-08T05:51:03.829Z,0.50
2019-06-08T05:55:04.466Z,0.55
2019-06-08T05:59:08.518Z,0.60
2019-06-08T06:03:12.607Z,0.83
2019-06-08T06:07:16.684Z,0.50
2019-06-08T06:11:21.047Z,0.53
2019-06-08T06:15:25.042Z,0.73
2019-06-08T06:19:29.350Z,0.57
2019-06-08T06:23:33.414Z,0.53
2019-06-08T06:27:37.467Z,0.42
2019-06-08T06:31:43.647Z,0.60
2019-06-08T06:35:49.936Z,0.45
2019-06-08T06:39:54.265Z,0.75
2019-06-08T06:43:58.444Z,0.60
2019-06-08T06:48:02.278Z,0.50
2019-06-08T06:52:06.420Z,0.60
2019-06-08T06:56:10.520Z,0.60
2019-06-08T07:00:16.093Z,0.70
2019-06-08T07:04:20.302Z,0.55
2019-06-08T07:08:24.550Z,0.70
2019-06-08T07:12:28.775Z,0.62
2019-06-08T07:16:32.930Z,0.55
2019-06-08T07:20:36.962Z,0.73
2019-06-08T07:24:41.190Z,0.60
2019-06-08T07:28:46.239Z,0.57
2019-06-08T07:32:52.936Z,0.68
2019-06-08T07:36:57.185Z,0.60
2019-06-08T07:41:01.887Z,0.60
2019-06-08T07:45:06.319Z,0.47
2019-06-08T07:49:10.425Z,0.50
2019-06-08T07:53:14.653Z,0.40
2019-06-08T07:57:18.821Z,0.60
2019-06-08T08:01:35.694Z,0.55
2019-06-08T08:05:28.693Z,0.40
2019-06-08T08:09:32.973Z,0.53
2019-06-08T08:13:37.137Z,0.50
2019-06-08T08:17:41.360Z,0.70
2019-06-08T08:21:48.270Z,0.50
2019-06-08T08:25:51.513Z,0.37
2019-06-08T08:29:58.627Z,0.45
2019-06-08T08:34:05.774Z,0.50
2019-06-08T08:38:07.828Z,0.42
2019-06-08T08:42:12.086Z,0.45
2019-06-08T08:46:17.337Z,0.70
2019-06-08T08:50:21.494Z,0.45
2019-06-08T08:54:27.514Z,0.50
2019-06-08T08:58:31.476Z,0.50
2019-06-08T09:02:37.451Z,0.60
2019-06-08T09:06:41.675Z,0.50
2019-06-08T09:10:48.083Z,0.60
2019-06-08T09:14:54.242Z,0.62
2019-06-08T09:19:02.154Z,0.78
2019-06-08T09:23:14.714Z,0.65
2019-06-08T09:27:10.059Z,0.55
2019-06-08T09:31:14.417Z,0.42
2019-06-08T09:35:21.174Z,0.60
2019-06-08T09:39:24.352Z,0.60
2019-06-08T09:43:29.017Z,0.75
2019-06-08T09:47:34.402Z,0.45
2019-06-08T09:51:38.491Z,0.60
2019-06-08T09:55:42.803Z,0.40
2019-06-08T09:59:48.215Z,0.50
2019-06-08T10:03:54.174Z,0.90
2019-06-08T10:08:00.450Z,0.40
2019-06-08T10:12:06.110Z,0.55
2019-06-08T10:16:10.768Z,0.53
2019-06-08T10:20:17.756Z,0.80
2019-06-08T10:24:21.334Z,0.78
2019-06-08T10:28:25.476Z,0.50
2019-06-08T10:32:29.919Z,0.40
2019-06-08T10:36:33.997Z,0.60
2019-06-08T10:41:04.831Z,0.53
2019-06-08T10:45:07.703Z,0.50
2019-06-08T10:49:13.964Z,0.60
2019-06-08T10:53:16.668Z,0.50
2019-06-08T10:57:20.849Z,0.53
2019-06-08T11:01:24.957Z,0.50
2019-06-08T11:05:29.003Z,0.30
2019-06-08T11:09:33.412Z,0.80
2019-06-08T11:13:37.546Z,0.60
2019-06-08T11:17:41.602Z,0.42
2019-06-08T11:21:48.095Z,0.60
2019-06-08T11:25:51.646Z,0.40
2019-06-08T11:29:57.585Z,0.40
2019-06-08T11:34:02.667Z,0.53
2019-06-08T11:38:10.961Z,0.42
2019-06-08T11:42:13.505Z,0.50
2019-06-08T11:46:20.888Z,0.50
2019-06-08T11:50:33.588Z,0.40
2019-06-08T11:54:40.935Z,0.53
2019-06-08T11:58:45.382Z,0.80
2019-06-08T12:02:49.622Z,0.70
2019-06-08T12:06:53.582Z,0.65
2019-06-08T12:11:02.035Z,0.50
2019-06-08T12:15:04.644Z,1.00
2019-06-08T12:19:11.989Z,0.55
2019-06-08T12:23:14.673Z,0.60
2019-06-08T12:27:29.617Z,0.60
2019-06-08T12:31:24.770Z,0.50
2019-06-08T12:35:29.134Z,0.50
2019-06-08T12:39:33.220Z,0.50
2019-06-08T12:43:38.537Z,0.50
2019-06-08T12:47:42.989Z,0.80
2019-06-08T12:51:51.797Z,0.60
2019-06-08T12:55:54.669Z,1.82
2019-06-08T13:00:00.125Z,0.90
2019-06-08T13:04:04.628Z,0.80
2019-06-08T13:08:10.271Z,0.75
2019-06-08T13:12:15.115Z,0.50
2019-06-08T13:16:23.649Z,0.57
2019-06-08T13:20:25.041Z,0.47
2019-06-08T13:24:29.251Z,0.82
2019-06-08T13:28:33.354Z,4.37
2019-06-08T13:32:38.310Z,1.90
2019-06-08T13:36:43.668Z,4.80
2019-06-08T13:40:48.447Z,2.33
2019-06-08T13:44:52.621Z,1.40
2019-06-08T13:48:58.529Z,0.70
2019-06-08T13:53:02.745Z,0.60
2019-06-08T13:57:08.512Z,0.57
2019-06-08T14:01:13.389Z,0.53
2019-06-08T14:05:24.801Z,0.70
2019-06-08T14:09:31.125Z,0.57
2019-06-08T14:13:34.424Z,0.88
2019-06-08T14:17:37.829Z,0.60
2019-06-08T14:21:42.218Z,0.80
2019-06-08T14:25:53.876Z,0.68
2019-06-08T14:29:53.538Z,0.57
2019-06-08T14:33:57.658Z,0.80
2019-06-08T14:38:01.814Z,0.50
2019-06-08T14:42:08.133Z,0.60
2019-06-08T14:46:12.332Z,0.60
2019-06-08T14:50:18.515Z,0.50
2019-06-08T14:54:26.378Z,0.60
2019-06-08T14:58:33.545Z,0.30
2019-06-08T15:02:34.456Z,0.30
2019-06-08T15:06:38.667Z,0.50
2019-06-08T15:10:42.856Z,0.40
2019-06-08T15:14:47.735Z,0.60
2019-06-08T15:18:52.207Z,0.45
2019-06-08T15:22:57.906Z,0.60
2019-06-08T15:27:02.539Z,0.53
2019-06-08T15:31:08.392Z,0.40
2019-06-08T15:35:12.422Z,1.00
2019-06-08T15:39:17.904Z,0.50
2019-06-08T15:43:22.321Z,0.42
2019-06-08T15:47:26.502Z,0.50
2019-06-08T15:51:33.877Z,0.40
2019-06-08T15:55:37.939Z,0.72
2019-06-08T15:59:42.150Z,1.42
2019-06-08T16:03:46.535Z,0.42
2019-06-08T16:07:50.608Z,0.50
2019-06-08T16:11:54.663Z,0.50
2019-06-08T16:15:58.710Z,0.60
2019-06-08T16:20:02.875Z,0.40
2019-06-08T16:24:07.959Z,0.68
2019-06-08T16:28:12.083Z,0.40
2019-06-08T16:32:16.371Z,0.50
2019-06-08T16:36:20.354Z,0.60
2019-06-08T16:40:24.610Z,0.55
2019-06-08T16:44:29.962Z,0.50
2019-06-08T16:48:34.683Z,0.70
2019-06-08T16:52:38.842Z,0.40
2019-06-08T16:56:44.338Z,0.50
2019-06-08T17:00:48.582Z,0.30
2019-06-08T17:04:52.627Z,0.50
2019-06-08T17:08:57.003Z,0.20
2019-06-08T17:13:01.047Z,0.40
2019-06-08T17:17:05.291Z,0.70
2019-06-08T17:21:09.420Z,0.35
2019-06-08T17:25:13.771Z,0.45
2019-06-08T17:29:17.957Z,0.40
2019-06-08T17:33:22.099Z,0.40
2019-06-08T17:37:26.263Z,0.42
2019-06-08T17:41:31.835Z,0.65
2019-06-08T17:45:36.307Z,0.42
2019-06-08T17:49:40.756Z,0.30
2019-06-08T17:53:44.911Z,0.40
2019-06-08T17:57:53.527Z,0.57
2019-06-08T18:01:54.697Z,0.60
2019-06-08T18:05:58.704Z,0.40
2019-06-08T18:10:03.059Z,0.40
2019-06-08T18:14:07.502Z,0.30
2019-06-08T18:18:11.788Z,0.33
2019-06-08T18:22:18.552Z,0.30
2019-06-08T18:26:21.783Z,0.40
2019-06-08T18:30:27.638Z,0.20
2019-06-08T18:34:32.298Z,0.30
2019-06-08T18:38:39.790Z,0.40
2019-06-08T18:42:43.147Z,0.40
2019-06-08T18:46:48.359Z,0.30
2019-06-08T18:50:52.445Z,0.25
2019-06-08T18:54:57.826Z,0.20
2019-06-08T18:59:02.210Z,0.30
2019-06-08T19:03:07.203Z,0.30
2019-06-08T19:07:11.520Z,0.30
2019-06-08T19:11:16.726Z,0.60
2019-06-08T19:15:23.034Z,0.60
2019-06-08T19:19:28.559Z,0.60
2019-06-08T19:23:33.219Z,0.30
2019-06-08T19:27:43.026Z,0.40
2019-06-08T19:31:45.329Z,0.23
2019-06-08T19:35:53.717Z,0.28
2019-06-08T19:39:57.574Z,0.20
2019-06-08T19:44:00.956Z,0.30
2019-06-08T19:48:05.039Z,0.50
2019-06-08T19:52:09.351Z,1.65
2019-06-08T19:56:13.323Z,2.40
2019-06-08T20:00:18.061Z,3.90
2019-06-08T20:04:22.266Z,2.87
2019-06-08T20:08:28.570Z,1.30
2019-06-08T20:12:32.302Z,0.78
2019-06-08T20:16:37.642Z,0.70
2019-06-08T20:20:42.318Z,0.60
2019-06-08T20:24:51.443Z,0.50
2019-06-08T20:29:03.562Z,0.70
2019-06-08T20:32:58.535Z,0.57
2019-06-08T20:37:02.869Z,0.47
2019-06-08T20:41:07.579Z,0.62
2019-06-08T20:45:11.827Z,0.50
2019-06-08T20:49:17.250Z,0.35
2019-06-08T20:53:21.699Z,0.40
2019-06-08T20:57:25.828Z,0.42
2019-06-08T21:01:29.881Z,0.40
2019-06-08T21:05:34.207Z,0.43
2019-06-08T21:09:38.115Z,0.43
2019-06-08T21:13:42.150Z,0.43
2019-06-08T21:17:49.113Z,0.30
2019-06-08T21:21:54.367Z,0.30
2019-06-08T21:26:00.058Z,0.37
2019-06-08T21:30:08.609Z,0.40
2019-06-08T21:34:10.703Z,0.30
2019-06-08T21:38:23.414Z,0.37
2019-06-08T21:42:20.449Z,0.43
2019-06-08T21:46:24.697Z,0.37
2019-06-08T21:50:28.833Z,0.63
2019-06-08T21:54:33.961Z,0.30
2019-06-08T21:58:39.802Z,0.50
2019-06-08T22:02:43.865Z,0.37
2019-06-08T22:06:48.125Z,0.40
2019-06-08T22:10:52.724Z,0.20
2019-06-08T22:14:59.316Z,0.30
2019-06-08T22:19:03.386Z,0.40
2019-06-08T22:23:07.626Z,0.30
2019-06-08T22:27:11.724Z,0.50
2019-06-08T22:31:17.076Z,0.50
2019-06-08T22:35:21.175Z,0.60
2019-06-08T22:39:25.231Z,0.50
2019-06-08T22:43:29.305Z,0.40
2019-06-08T22:47:33.426Z,0.30
2019-06-08T22:51:38.355Z,0.37
2019-06-08T22:55:42.487Z,0.57
2019-06-08T22:59:47.709Z,0.87
2019-06-08T23:03:51.777Z,0.70
2019-06-08T23:07:59.785Z,0.60
2019-06-08T23:12:04.409Z,0.67
2019-06-08T23:16:08.810Z,0.70
2019-06-08T23:20:13.331Z,0.40
2019-06-08T23:24:18.064Z,0.30
2019-06-08T23:28:22.328Z,0.50
2019-06-08T23:32:27.627Z,0.60
2019-06-08T23:36:46.571Z,0.50
2019-06-08T23:40:38.536Z,0.50
2019-06-08T23:44:42.798Z,0.40
2019-06-08T23:48:48.433Z,0.30
2019-06-08T23:52:52.805Z,0.80
2019-06-08T23:56:57.134Z,0.40
